Time;durP1;ratioP1;P1;durP2;ratioP2;P2;SDS_P1;SDS_P2;PMS_P1;PMS_P2;Temp;Humidity;BMP_temperature;BMP_pressure;BME280_temperature;BME280_humidity;BME280_pressure;Samples;Min_cycle;Max_cycle;Signal;HPM_P1;HPM_P2
2024/01/05 00:00:20;;;;;;;7.90;7.20;;;;;;;5.88;85.88;99633.75;5035134;28;20204;-83
2024/01/05 00:02:46;;;;;;;9.43;8.53;;;;;;;5.92;85.18;99640.59;5035292;28;20213;-83
2024/01/05 00:05:12;;;;;;;8.40;7.27;;;;;;;5.92;84.28;99645.78;5036148;28;20659;-83
2024/01/05 00:07:40;;;;;;;10.63;8.30;;;;;;;5.93;84.68;99655.28;5035286;28;20252;-83
2024/01/05 00:10:08;;;;;;;9.13;8.07;;;;;;;5.94;84.87;99651.78;5035538;28;20204;-83
2024/01/05 00:12:34;;;;;;;8.87;7.90;;;;;;;5.89;84.53;99651.84;5035714;28;20273;-83
2024/01/05 00:15:00;;;;;;;8.17;7.47;;;;;;;5.89;84.03;99644.09;5036184;28;20662;-81
2024/01/05 00:17:26;;;;;;;9.97;7.67;;;;;;;5.84;84.13;99640.69;5035270;28;20225;-82
2024/01/05 00:19:53;;;;;;;8.27;7.47;;;;;;;5.76;85.90;99626.97;5035556;28;20203;-81
2024/01/05 00:22:19;;;;;;;10.67;7.33;;;;;;;5.87;84.62;99621.69;5035446;28;20208;-83
2024/01/05 00:24:47;;;;;;;9.73;7.70;;;;;;;5.85;84.62;99626.88;5035565;28;20208;-82
2024/01/05 00:27:13;;;;;;;11.03;7.83;;;;;;;5.85;84.98;99636.38;5035049;28;20587;-83
2024/01/05 00:29:39;;;;;;;8.80;7.90;;;;;;;5.88;84.69;99626.81;5035292;28;20257;-83
2024/01/05 00:32:06;;;;;;;8.60;7.70;;;;;;;5.94;84.89;99628.47;5034120;28;20204;-83
2024/01/05 00:34:33;;;;;;;10.13;8.00;;;;;;;5.91;84.60;99625.94;5035006;28;20239;-83
2024/01/05 00:36:59;;;;;;;10.53;8.47;;;;;;;5.89;83.95;99633.72;5034608;28;20612;-83
2024/01/05 00:39:25;;;;;;;8.83;8.03;;;;;;;5.91;83.99;99625.94;5034873;28;20265;-83
2024/01/05 00:41:53;;;;;;;8.20;7.27;;;;;;;5.92;83.88;99635.41;5034845;28;20242;-84
2024/01/05 00:44:19;;;;;;;11.87;8.43;;;;;;;5.88;84.35;99634.59;5031172;28;20577;-82
2024/01/05 00:46:46;;;;;;;8.70;7.90;;;;;;;5.92;83.88;99631.06;5035437;28;20228;-82
2024/01/05 00:49:12;;;;;;;8.13;7.33;;;;;;;5.91;84.22;99638.91;5036145;28;20215;-83
2024/01/05 00:51:38;;;;;;;8.10;7.30;;;;;;;5.86;84.18;99630.31;5034830;28;20623;-82
2024/01/05 00:54:06;;;;;;;8.33;7.53;;;;;;;5.87;84.30;99630.31;5034307;28;20204;-83
2024/01/05 00:56:32;;;;;;;10.30;7.67;;;;;;;5.89;83.80;99638.06;5034838;28;20200;-81
2024/01/05 00:59:00;;;;;;;7.70;7.00;;;;;;;5.89;83.33;99645.81;5033976;28;20277;-83
2024/01/05 01:01:26;;;;;;;8.03;7.23;;;;;;;5.88;82.95;99639.78;5035045;28;20270;-82
2024/01/05 01:03:52;;;;;;;8.57;6.70;;;;;;;5.89;83.45;99638.06;5034572;28;20227;-83
2024/01/05 01:06:19;;;;;;;7.37;6.67;;;;;;;5.88;83.51;99633.75;5034030;28;20270;-80
2024/01/05 01:08:45;;;;;;;8.50;7.57;;;;;;;5.85;84.26;99624.28;5033875;28;20227;-82
2024/01/05 01:11:15;;;;;;;7.97;7.27;;;;;;;5.78;83.96;99620.06;5034885;28;20362;-82
2024/01/05 01:13:42;;;;;;;8.57;7.20;;;;;;;5.82;84.86;99598.41;5034022;28;20282;-83
2024/01/05 01:16:09;;;;;;;8.10;7.03;;;;;;;5.81;84.44;99588.06;5034385;28;20694;-83
2024/01/05 01:18:36;;;;;;;8.57;7.67;;;;;;;5.77;85.59;99576.91;5033536;28;20223;-82
2024/01/05 01:21:02;;;;;;;8.63;7.77;;;;;;;5.72;85.85;99565.75;5033516;28;20624;-85
2024/01/05 01:23:29;;;;;;;8.40;7.60;;;;;;;5.77;86.21;99545.84;5032586;28;20200;-82
2024/01/05 01:25:55;;;;;;;9.03;8.10;;;;;;;5.84;85.48;99557.81;5032505;28;20227;-84
2024/01/05 01:28:21;;;;;;;11.73;9.13;;;;;;;5.83;85.73;99565.59;5033187;28;20215;-83
2024/01/05 01:30:48;;;;;;;12.23;8.17;;;;;;;5.82;85.43;99559.56;5033340;28;20266;-81
2024/01/05 01:33:15;;;;;;;9.03;8.23;;;;;;;5.84;85.12;99563.00;5033725;28;20204;-82
2024/01/05 01:35:42;;;;;;;12.80;8.17;;;;;;;5.88;84.88;99548.28;5033443;28;20199;-81
2024/01/05 01:38:08;;;;;;;10.30;7.70;;;;;;;5.87;84.95;99547.44;5032513;28;20656;-83
2024/01/05 01:40:34;;;;;;;9.60;8.63;;;;;;;5.87;85.02;99550.00;5033528;28;20208;-81
2024/01/05 01:43:01;;;;;;;11.80;8.83;;;;;;;5.88;84.61;99551.72;5033752;28;20198;-82
2024/01/05 01:45:27;;;;;;;9.47;8.57;;;;;;;5.85;85.25;99551.78;5033709;28;20228;-82
2024/01/05 01:47:54;;;;;;;10.33;8.63;;;;;;;5.87;85.46;99536.22;5030991;28;20237;-82
2024/01/05 01:50:24;;;;;;;9.60;8.57;;;;;;;5.87;86.05;99526.72;5033066;28;20745;-83
2024/01/05 01:52:52;;;;;;;9.20;8.30;;;;;;;5.88;85.99;99525.81;5032180;28;20216;-82
2024/01/05 01:55:19;;;;;;;9.53;8.63;;;;;;;5.89;85.59;99521.50;5033130;28;20252;-84
2024/01/05 01:57:45;;;;;;;9.53;8.63;;;;;;;5.89;86.02;99518.91;5032695;28;20228;-82
2024/01/05 02:00:13;;;;;;;9.00;8.20;;;;;;;5.84;86.80;99513.78;5033109;28;20238;-84
2024/01/05 02:02:41;;;;;;;9.10;8.30;;;;;;;5.83;87.16;99493.97;5032612;28;20213;-83
2024/01/05 02:05:07;;;;;;;9.13;8.13;;;;;;;5.83;86.50;99488.78;5033113;28;20208;-83
2024/01/05 02:07:34;;;;;;;8.70;7.83;;;;;;;5.84;86.22;99485.31;5032906;28;20233;-84
2024/01/05 02:10:01;;;;;;;10.87;8.53;;;;;;;5.86;86.22;99475.78;5033409;28;20209;-84
2024/01/05 02:12:27;;;;;;;8.63;7.80;;;;;;;5.84;86.55;99468.91;5033401;28;20262;-85
2024/01/05 02:14:53;;;;;;;11.87;8.93;;;;;;;5.87;86.72;99469.72;5032455;28;20210;-83
2024/01/05 02:17:30;;;;;;;9.23;8.33;;;;;;;5.81;86.67;99472.41;5032863;28;20215;-84
2024/01/05 02:19:57;;;;;;;9.60;8.37;;;;;;;5.84;86.02;99474.09;5033358;28;20213;-84
2024/01/05 02:22:26;;;;;;;9.57;8.57;;;;;;;5.83;85.88;99464.59;5032991;28;20205;-83
2024/01/05 02:24:54;;;;;;;8.77;7.60;;;;;;;5.74;86.69;99460.44;5032914;28;20208;-85
2024/01/05 02:27:20;;;;;;;9.77;8.77;;;;;;;5.77;87.40;99445.72;5032704;28;20247;-85
2024/01/05 02:29:47;;;;;;;9.07;7.83;;;;;;;5.79;87.00;99427.56;5032294;28;20206;-84
2024/01/05 02:32:13;;;;;;;8.60;7.77;;;;;;;5.77;86.80;99419.81;5031287;28;20598;-84
2024/01/05 02:34:39;;;;;;;9.33;8.43;;;;;;;5.78;87.60;99407.72;5032492;28;20201;-83
2024/01/05 02:37:06;;;;;;;10.07;8.43;;;;;;;5.82;87.37;99404.19;5032374;28;20297;-84
2024/01/05 02:39:32;;;;;;;8.87;7.97;;;;;;;5.83;87.33;99397.28;5032638;28;20208;-82
2024/01/05 02:42:00;;;;;;;9.63;8.73;;;;;;;5.84;86.56;99396.41;5042519;28;20741;-83
2024/01/05 02:44:26;;;;;;;9.47;8.67;;;;;;;5.82;86.62;99400.75;5041452;28;20195;-83
2024/01/05 02:46:52;;;;;;;11.10;8.90;;;;;;;5.78;87.46;99385.25;5038487;28;20270;-82
2024/01/05 02:49:19;;;;;;;10.60;8.37;;;;;;;5.74;88.04;99368.06;5042716;28;20673;-82
2024/01/05 02:51:45;;;;;;;9.70;8.80;;;;;;;5.77;87.54;99365.44;5042453;28;20261;-85
2024/01/05 02:54:11;;;;;;;9.00;8.10;;;;;;;5.73;87.56;99360.34;5042696;28;20203;-83
2024/01/05 02:56:38;;;;;;;9.53;8.57;;;;;;;5.68;88.11;99341.44;5041784;28;20257;-83
2024/01/05 02:59:06;;;;;;;8.83;8.03;;;;;;;5.73;88.20;99334.44;5042244;28;20281;-84
2024/01/05 03:01:32;;;;;;;9.17;8.27;;;;;;;5.73;87.98;99327.53;5038398;28;20238;-83
2024/01/05 03:04:00;;;;;;;9.73;8.73;;;;;;;5.70;87.79;99335.34;5043662;28;20677;-84
2024/01/05 03:06:27;;;;;;;8.00;7.30;;;;;;;5.70;88.00;99326.72;5045574;28;20277;-84
2024/01/05 03:08:53;;;;;;;8.63;7.87;;;;;;;5.67;88.47;99319.00;5044409;28;20278;-86
2024/01/05 03:11:19;;;;;;;9.43;8.50;;;;;;;5.69;88.34;99314.66;5046643;28;20229;-83
2024/01/05 03:13:46;;;;;;;8.60;7.83;;;;;;;5.72;88.19;99309.44;5047011;28;20281;-83
2024/01/05 03:16:13;;;;;;;9.30;7.50;;;;;;;5.74;87.89;99303.34;5047022;28;20258;-85
2024/01/05 03:18:40;;;;;;;9.20;8.17;;;;;;;5.75;88.70;99310.22;5045872;28;20223;-82
2024/01/05 03:21:07;;;;;;;9.43;8.40;;;;;;;5.68;89.07;99297.41;5038578;28;20203;-83
2024/01/05 03:23:34;;;;;;;9.13;8.17;;;;;;;5.68;88.63;99312.94;5036878;28;20626;-83
2024/01/05 03:26:00;;;;;;;9.70;8.80;;;;;;;5.67;88.49;99314.69;5049327;28;20222;-84
2024/01/05 03:28:26;;;;;;;9.10;8.20;;;;;;;5.65;88.57;99294.88;5047076;28;20266;-84
2024/01/05 03:30:53;;;;;;;9.20;8.40;;;;;;;5.67;89.23;99290.50;5049632;28;20211;-85
2024/01/05 03:33:21;;;;;;;9.07;8.17;;;;;;;5.66;88.77;99284.50;5047008;28;20250;-84
2024/01/05 03:35:47;;;;;;;7.77;7.07;;;;;;;5.67;89.58;99273.28;5038163;28;20618;-84
2024/01/05 03:38:14;;;;;;;8.20;7.40;;;;;;;5.71;89.23;99268.91;5041445;28;20230;-83
2024/01/05 03:40:40;;;;;;;8.53;7.57;;;;;;;5.71;88.42;99263.72;5041953;28;20251;-85
2024/01/05 03:43:06;;;;;;;8.60;7.80;;;;;;;5.64;88.38;99265.56;5041657;28;20249;-85
2024/01/05 03:45:33;;;;;;;8.60;7.63;;;;;;;5.65;89.26;99245.69;5042743;28;20428;-84
2024/01/05 03:47:59;;;;;;;8.03;7.23;;;;;;;5.68;88.79;99248.22;5040829;28;20223;-82
2024/01/05 03:50:27;;;;;;;8.17;7.47;;;;;;;5.68;88.81;99256.84;5040570;28;20226;-84
2024/01/05 03:52:53;;;;;;;8.17;7.37;;;;;;;5.69;88.84;99247.34;5034672;28;20548;-83
2024/01/05 03:55:19;;;;;;;8.37;7.53;;;;;;;5.70;89.34;99244.72;5034673;28;20200;-84
2024/01/05 03:57:46;;;;;;;8.53;7.73;;;;;;;5.70;88.98;99244.72;5034200;28;20287;-84
2024/01/05 04:00:13;;;;;;;7.90;7.07;;;;;;;5.71;89.50;99246.44;5033760;28;20603;-83
2024/01/05 04:02:39;;;;;;;8.27;7.53;;;;;;;5.72;89.35;99240.38;5035317;28;20202;-84
2024/01/05 04:05:06;;;;;;;8.33;7.57;;;;;;;5.72;88.04;99231.75;5035259;28;20352;-85
2024/01/05 04:07:34;;;;;;;7.80;7.10;;;;;;;5.69;88.63;99231.81;5034700;28;20227;-84
2024/01/05 04:10:00;;;;;;;8.43;7.73;;;;;;;5.65;89.74;99233.63;5035014;28;20276;-83
2024/01/05 04:12:27;;;;;;;8.97;8.07;;;;;;;5.69;89.47;99224.03;5034737;28;20667;-83
2024/01/05 04:14:53;;;;;;;7.43;6.80;;;;;;;5.73;89.34;99229.16;5034791;28;20207;-83
2024/01/05 04:17:20;;;;;;;8.27;7.40;;;;;;;5.74;89.04;99230.00;5034265;28;20244;-83
2024/01/05 04:19:46;;;;;;;8.10;7.30;;;;;;;5.74;88.04;99233.44;5034997;28;20211;-81
2024/01/05 04:22:12;;;;;;;8.57;7.77;;;;;;;5.74;89.19;99235.16;5032639;28;20230;-84
2024/01/05 04:24:40;;;;;;;6.67;6.10;;;;;;;5.75;88.25;99236.91;5033471;28;20203;-84
2024/01/05 04:27:07;;;;;;;8.57;7.70;;;;;;;5.64;89.59;99237.06;5033616;28;20235;-82
2024/01/05 04:29:33;;;;;;;8.47;7.73;;;;;;;5.69;89.86;99221.44;5033573;28;20617;-84
2024/01/05 04:31:59;;;;;;;7.73;7.03;;;;;;;5.70;88.85;99210.22;5033482;28;20230;-85
2024/01/05 04:34:26;;;;;;;9.43;8.20;;;;;;;5.68;88.80;99222.34;5034154;28;20251;-84
2024/01/05 04:36:52;;;;;;;8.30;7.50;;;;;;;5.66;89.25;99218.94;5034365;28;20196;-83
2024/01/05 04:39:18;;;;;;;8.67;7.87;;;;;;;5.65;89.81;99199.09;5034294;28;20204;-85
2024/01/05 04:41:46;;;;;;;9.63;8.73;;;;;;;5.62;90.27;99186.22;5034649;28;20209;-85
2024/01/05 04:44:13;;;;;;;8.73;7.83;;;;;;;5.64;90.59;99182.72;5027087;28;20705;-85
2024/01/05 04:46:39;;;;;;;8.97;8.00;;;;;;;5.66;89.77;99175.75;5033939;28;20240;-84
2024/01/05 04:49:05;;;;;;;8.60;7.80;;;;;;;5.69;89.57;99182.63;5031986;28;20611;-84
2024/01/05 04:51:34;;;;;;;7.83;7.03;;;;;;;5.71;89.73;99181.72;5027610;28;20227;-85
2024/01/05 04:54:00;;;;;;;8.90;7.97;;;;;;;5.62;89.39;99192.25;5033305;28;20275;-85
2024/01/05 04:56:27;;;;;;;8.70;8.00;;;;;;;5.66;90.12;99195.63;5032518;28;20208;-86
2024/01/05 04:58:55;;;;;;;8.37;7.47;;;;;;;5.68;89.56;99184.34;5033487;28;20221;-84
2024/01/05 05:01:21;;;;;;;8.50;7.57;;;;;;;5.68;89.93;99183.50;5034435;28;20200;-84
2024/01/05 05:03:47;;;;;;;9.17;8.37;;;;;;;5.71;90.16;99181.72;5033971;28;20231;-85
2024/01/05 05:06:14;;;;;;;8.27;7.57;;;;;;;5.68;90.20;99167.97;5034204;28;20200;-84
2024/01/05 05:08:40;;;;;;;8.13;7.30;;;;;;;5.70;90.37;99173.97;5033957;28;20227;-86
2024/01/05 05:11:06;;;;;;;9.07;8.17;;;;;;;5.74;90.03;99165.25;5034177;28;20203;-85
2024/01/05 05:13:33;;;;;;;8.73;8.03;;;;;;;5.77;89.34;99170.41;5034015;28;20262;-83
2024/01/05 05:16:01;;;;;;;8.10;7.30;;;;;;;5.73;89.40;99173.94;5033825;28;20585;-83
2024/01/05 05:18:27;;;;;;;8.27;7.57;;;;;;;5.73;90.40;99169.59;5033281;28;20298;-83
2024/01/05 05:20:54;;;;;;;9.07;8.27;;;;;;;5.71;90.22;99165.34;5033640;28;20888;-85
2024/01/05 05:23:20;;;;;;;8.67;7.97;;;;;;;5.70;89.92;99168.81;5034568;28;20666;-85
2024/01/05 05:25:46;;;;;;;8.20;7.47;;;;;;;5.71;90.87;99152.41;5026876;28;20210;-84
2024/01/05 05:28:13;;;;;;;10.17;7.90;;;;;;;5.72;90.71;99141.97;5032175;28;20365;-83
2024/01/05 05:30:39;;;;;;;9.33;8.43;;;;;;;5.74;89.98;99152.31;5034042;28;20269;-83
2024/01/05 05:33:07;;;;;;;8.80;8.00;;;;;;;5.75;89.75;99152.28;5033583;28;20752;-83
2024/01/05 05:35:33;;;;;;;8.13;7.33;;;;;;;5.75;89.99;99151.44;5033508;28;20671;-86
2024/01/05 05:38:03;;;;;;;8.57;7.70;;;;;;;5.76;90.41;99151.41;5033067;28;20233;-85
2024/01/05 05:40:29;;;;;;;9.23;8.43;;;;;;;5.75;90.36;99141.94;5033864;28;20577;-85
2024/01/05 05:42:56;;;;;;;9.97;8.97;;;;;;;5.80;91.00;99148.75;5033958;28;20297;-85
2024/01/05 05:45:22;;;;;;;8.90;8.10;;;;;;;5.80;90.56;99144.44;5033703;28;20210;-84
2024/01/05 05:47:48;;;;;;;8.60;7.80;;;;;;;5.78;91.02;99141.84;5032845;28;20702;-86
2024/01/05 05:50:17;;;;;;;8.27;7.57;;;;;;;5.81;90.39;99132.31;5033381;28;20212;-86
2024/01/05 05:52:45;;;;;;;8.87;8.07;;;;;;;5.84;90.88;99127.09;5032120;28;20691;-83
2024/01/05 05:55:12;;;;;;;8.33;7.63;;;;;;;5.80;91.30;99126.28;5031925;28;20230;-84
2024/01/05 05:57:38;;;;;;;7.87;7.07;;;;;;;5.83;90.62;99125.38;5032217;28;20219;-85
2024/01/05 06:00:06;;;;;;;7.90;7.13;;;;;;;5.84;90.95;99125.34;5086055;23;20274;-77
2024/01/05 06:02:33;;;;;;;8.50;7.80;;;;;;;5.81;91.37;99125.44;5004775;28;20224;-78
2024/01/05 06:04:59;;;;;;;9.03;8.23;;;;;;;5.80;91.09;99121.13;5013267;28;20237;-79
2024/01/05 06:07:27;;;;;;;8.67;7.87;;;;;;;5.77;91.71;99116.03;5019592;28;20727;-78
2024/01/05 06:09:53;;;;;;;8.27;7.57;;;;;;;5.84;90.79;99114.16;5001120;28;20213;-78
2024/01/05 06:12:19;;;;;;;8.07;7.27;;;;;;;5.87;90.75;99127.88;5004726;28;20220;-78
2024/01/05 06:14:46;;;;;;;7.37;6.77;;;;;;;5.86;90.69;99127.91;4997893;28;20232;-78
2024/01/05 06:17:12;;;;;;;7.37;6.67;;;;;;;5.88;90.49;99132.16;5006106;28;20222;-77
2024/01/05 06:19:39;;;;;;;7.60;6.97;;;;;;;5.89;91.34;99131.28;5011385;28;20209;-78
2024/01/05 06:22:05;;;;;;;8.27;7.57;;;;;;;5.91;91.13;99132.13;5012766;28;20777;-78
2024/01/05 06:24:33;;;;;;;7.67;6.97;;;;;;;5.93;90.60;99127.75;5013232;28;20643;-78
2024/01/05 06:26:59;;;;;;;7.43;6.73;;;;;;;5.93;91.11;99125.16;5012400;28;20249;-78
2024/01/05 06:29:26;;;;;;;6.70;6.10;;;;;;;5.97;90.94;99132.00;5011818;28;20203;-78
2024/01/05 06:31:52;;;;;;;8.20;6.87;;;;;;;5.97;90.89;99133.75;5013096;28;20772;-77
2024/01/05 06:34:18;;;;;;;7.40;6.70;;;;;;;5.99;90.91;99134.56;5012105;28;20734;-78
2024/01/05 06:36:45;;;;;;;6.77;6.23;;;;;;;6.01;90.89;99138.00;5011737;28;20212;-78
2024/01/05 06:39:11;;;;;;;7.37;6.67;;;;;;;6.01;90.10;99137.16;5011993;28;20208;-78
2024/01/05 06:41:39;;;;;;;6.53;5.93;;;;;;;6.00;90.79;99130.25;5012965;28;20247;-78
2024/01/05 06:44:05;;;;;;;7.67;6.97;;;;;;;6.01;90.53;99129.38;5003888;28;20204;-78
2024/01/05 06:46:31;;;;;;;7.10;6.27;;;;;;;5.98;91.38;99114.72;4998370;28;20585;-78
2024/01/05 06:48:58;;;;;;;7.57;6.97;;;;;;;5.95;91.20;99100.13;5012663;28;20626;-78
2024/01/05 06:51:28;;;;;;;7.07;6.43;;;;;;;5.99;90.81;99100.06;5013926;28;20227;-78
2024/01/05 06:53:55;;;;;;;8.20;7.40;;;;;;;5.96;90.79;99099.22;5012585;28;20207;-78
2024/01/05 06:56:21;;;;;;;7.90;7.07;;;;;;;6.00;90.91;99092.22;5012819;28;20324;-77
2024/01/05 06:58:49;;;;;;;7.93;7.23;;;;;;;6.00;91.22;99087.06;5010824;28;20209;-78
2024/01/05 07:01:17;;;;;;;7.63;6.93;;;;;;;5.94;90.84;99088.00;4993123;28;20789;-77
2024/01/05 07:03:44;;;;;;;9.90;7.93;;;;;;;5.97;90.95;99079.38;5006643;28;20220;-77
2024/01/05 07:06:11;;;;;;;8.80;8.00;;;;;;;5.97;91.31;99085.41;5012750;28;20262;-77
2024/01/05 07:08:37;;;;;;;7.40;6.70;;;;;;;6.01;91.23;99083.59;5012410;28;20227;-77
2024/01/05 07:11:03;;;;;;;8.07;7.37;;;;;;;6.03;91.30;99096.50;5012521;28;20226;-77
2024/01/05 07:13:30;;;;;;;8.77;7.97;;;;;;;6.03;91.70;99097.38;5012765;28;20633;-77
2024/01/05 07:15:58;;;;;;;9.47;8.40;;;;;;;6.06;91.75;99089.50;5012975;28;20298;-78
2024/01/05 07:18:24;;;;;;;8.13;7.43;;;;;;;6.04;91.33;99086.09;5012477;28;20261;-78
2024/01/05 07:20:50;;;;;;;7.93;7.23;;;;;;;6.07;91.74;99077.44;5012640;28;20235;-78
2024/01/05 07:23:17;;;;;;;7.83;7.10;;;;;;;6.09;91.20;99073.91;5012193;28;20605;-77
2024/01/05 07:25:43;;;;;;;8.43;7.63;;;;;;;6.09;91.77;99075.66;5012086;28;20219;-78
2024/01/05 07:28:10;;;;;;;8.23;7.43;;;;;;;6.11;91.05;99069.53;5011635;28;20233;-78
2024/01/05 07:30:37;;;;;;;8.40;7.67;;;;;;;6.11;91.33;99074.72;5001337;28;20223;-78
2024/01/05 07:33:05;;;;;;;8.97;8.10;;;;;;;6.11;91.44;99063.53;5001392;28;20213;-78
2024/01/05 07:35:31;;;;;;;8.30;7.50;;;;;;;6.13;90.97;99067.78;5013597;28;20251;-78
2024/01/05 07:37:57;;;;;;;8.40;7.60;;;;;;;6.10;90.89;99072.16;5012714;28;20616;-77
2024/01/05 07:40:24;;;;;;;8.37;7.67;;;;;;;6.06;91.70;99067.94;5011892;28;20718;-78
2024/01/05 07:42:50;;;;;;;8.90;8.00;;;;;;;6.11;91.62;99063.53;5012733;28;20206;-78
2024/01/05 07:45:16;;;;;;;8.37;7.57;;;;;;;6.09;91.65;99066.13;5020652;28;20677;-78
2024/01/05 07:47:43;;;;;;;8.23;7.43;;;;;;;6.07;91.77;99067.91;5011830;28;20223;-78
2024/01/05 07:50:11;;;;;;;8.97;8.13;;;;;;;6.11;91.83;99061.78;5011988;28;20209;-77
2024/01/05 07:52:37;;;;;;;8.40;7.60;;;;;;;6.15;91.13;99062.56;5015429;28;20685;-77
2024/01/05 07:55:04;;;;;;;8.37;7.57;;;;;;;6.15;90.89;99060.81;5015903;28;20266;-77
2024/01/05 07:57:30;;;;;;;8.53;7.73;;;;;;;6.15;90.68;99066.00;5017014;28;20250;-78
2024/01/05 07:59:57;;;;;;;9.23;8.33;;;;;;;6.14;90.78;99068.59;5000397;28;20269;-78
2024/01/05 08:02:23;;;;;;;9.67;8.77;;;;;;;6.08;91.49;99069.59;5006094;28;20272;-78
2024/01/05 08:04:49;;;;;;;8.63;7.50;;;;;;;6.00;91.81;99043.03;5017353;28;20273;-79
2024/01/05 08:07:17;;;;;;;8.70;7.80;;;;;;;6.07;92.39;99038.56;5016002;28;20238;-79
2024/01/05 08:09:44;;;;;;;9.30;8.30;;;;;;;6.06;92.95;99024.75;5014157;28;20215;-78
2024/01/05 08:12:11;;;;;;;9.47;8.57;;;;;;;6.06;93.59;99010.94;5014689;28;20235;-78
2024/01/05 08:14:38;;;;;;;9.10;8.20;;;;;;;6.11;92.94;98983.22;5015671;28;20207;-78
2024/01/05 08:17:04;;;;;;;9.20;8.13;;;;;;;6.13;93.34;98984.88;5015722;28;20209;-78
2024/01/05 08:19:31;;;;;;;9.07;8.17;;;;;;;6.19;93.32;98985.63;5015752;28;20212;-78
2024/01/05 08:21:57;;;;;;;8.97;7.70;;;;;;;6.18;93.50;98987.34;5016899;28;20233;-78
2024/01/05 08:24:25;;;;;;;8.07;7.27;;;;;;;6.23;92.62;98995.03;5016771;28;20278;-78
2024/01/05 08:26:52;;;;;;;9.20;8.30;;;;;;;6.21;92.52;98999.38;5015957;28;20212;-78
2024/01/05 08:29:18;;;;;;;8.47;7.67;;;;;;;6.25;93.18;99001.00;5004978;28;20231;-78
2024/01/05 08:31:45;;;;;;;9.13;8.20;;;;;;;6.15;93.51;99001.22;5002037;28;20279;-78
2024/01/05 08:34:11;;;;;;;8.40;7.60;;;;;;;6.23;93.52;98990.69;5016988;28;20640;-79
2024/01/05 08:36:37;;;;;;;8.57;7.50;;;;;;;6.28;92.52;99006.09;5017426;28;20203;-78
2024/01/05 08:39:05;;;;;;;8.67;7.87;;;;;;;6.33;92.64;99017.22;5017391;28;20203;-78
2024/01/05 08:41:32;;;;;;;10.50;9.17;;;;;;;6.32;92.24;99018.09;5013844;28;20224;-77
2024/01/05 08:43:59;;;;;;;7.90;7.20;;;;;;;6.32;92.85;99020.69;5016145;28;20674;-78
2024/01/05 08:46:27;;;;;;;9.10;8.20;;;;;;;6.39;92.24;99022.25;5015092;28;20597;-78
2024/01/05 08:48:53;;;;;;;8.87;7.97;;;;;;;6.35;93.65;99021.47;5014373;28;20648;-78
2024/01/05 08:51:20;;;;;;;8.53;7.13;;;;;;;6.39;93.59;99029.19;5014833;28;20231;-78
2024/01/05 08:53:46;;;;;;;8.10;7.40;;;;;;;6.41;93.24;99033.41;5014710;28;20681;-78
2024/01/05 08:56:12;;;;;;;8.87;8.07;;;;;;;6.45;92.86;99036.78;5007747;28;20213;-78
2024/01/05 08:58:40;;;;;;;7.50;6.80;;;;;;;6.43;92.37;99041.16;5009828;28;20582;-78
2024/01/05 09:01:07;;;;;;;6.83;6.23;;;;;;;6.49;92.46;99049.63;5012605;28;20290;-78
2024/01/05 09:03:33;;;;;;;6.63;6.10;;;;;;;6.44;92.28;99048.03;5014211;28;20202;-78
2024/01/05 09:06:00;;;;;;;6.93;6.23;;;;;;;6.41;92.25;99043.78;5014687;28;20204;-78
2024/01/05 09:08:26;;;;;;;7.53;6.83;;;;;;;6.47;92.98;99029.84;5016403;28;20260;-78
2024/01/05 09:10:52;;;;;;;8.50;7.03;;;;;;;6.46;93.21;99036.78;5015615;28;20253;-78
2024/01/05 09:13:19;;;;;;;8.00;7.27;;;;;;;6.48;92.45;99041.88;5014554;28;20267;-78
2024/01/05 09:15:47;;;;;;;7.13;6.50;;;;;;;6.53;92.07;99045.22;5013565;28;20238;-78
2024/01/05 09:18:13;;;;;;;7.40;6.80;;;;;;;6.57;92.38;99045.09;5013614;28;20204;-78
2024/01/05 09:20:39;;;;;;;8.00;7.20;;;;;;;6.59;92.03;99047.66;5014294;28;20275;-77
2024/01/05 09:23:06;;;;;;;8.73;7.40;;;;;;;6.62;92.33;99051.91;5013944;28;20207;-77
2024/01/05 09:25:32;;;;;;;7.27;6.57;;;;;;;6.62;92.19;99039.81;5014366;28;20205;-77
2024/01/05 09:28:00;;;;;;;7.17;6.47;;;;;;;6.69;92.24;99036.16;5013580;28;20230;-77
2024/01/05 09:30:27;;;;;;;7.10;6.50;;;;;;;6.67;91.81;99055.25;5003439;28;20235;-77
2024/01/05 09:32:54;;;;;;;8.03;7.27;;;;;;;6.72;92.18;99056.84;5011064;28;20211;-77
2024/01/05 09:35:21;;;;;;;7.43;6.67;;;;;;;6.71;92.03;99057.72;4995982;28;20284;-76
2024/01/05 09:37:48;;;;;;;6.87;6.27;;;;;;;6.74;92.79;99049.88;5006140;28;20200;-76
2024/01/05 09:40:14;;;;;;;7.23;6.53;;;;;;;6.74;92.77;99051.63;5012870;28;20636;-78
2024/01/05 09:42:41;;;;;;;6.80;6.17;;;;;;;6.75;92.40;99054.16;5013350;28;20202;-77
2024/01/05 09:45:10;;;;;;;8.13;7.27;;;;;;;6.74;91.70;99049.88;5013738;28;20733;-78
2024/01/05 09:47:38;;;;;;;7.57;6.87;;;;;;;6.76;91.85;99042.91;5012863;28;20662;-77
2024/01/05 09:50:07;;;;;;;7.67;6.87;;;;;;;6.81;92.52;99045.38;5014178;28;20208;-79
2024/01/05 09:52:34;;;;;;;8.03;7.23;;;;;;;6.81;92.05;99045.38;5015360;28;20213;-78
2024/01/05 09:55:01;;;;;;;7.60;6.90;;;;;;;6.84;92.40;99049.63;5015146;28;20256;-77
2024/01/05 09:57:27;;;;;;;7.70;6.90;;;;;;;6.85;92.37;99047.00;5014940;28;20215;-78
2024/01/05 09:59:54;;;;;;;9.30;8.50;;;;;;;6.84;92.50;99047.91;5001180;28;20210;-79
2024/01/05 10:02:26;;;;;;;7.67;6.87;;;;;;;6.89;92.64;99039.97;5004695;28;20241;-78
2024/01/05 10:04:55;;;;;;;7.90;7.03;;;;;;;6.92;91.61;99037.31;5015330;28;20700;-78
2024/01/05 10:07:22;;;;;;;6.93;6.23;;;;;;;6.88;91.92;99033.94;5014198;28;20217;-78
2024/01/05 10:09:50;;;;;;;7.87;6.40;;;;;;;6.90;93.29;99033.91;5016135;28;20233;-80
2024/01/05 10:12:17;;;;;;;7.47;6.60;;;;;;;6.87;93.69;99026.22;5014365;28;20241;-78
2024/01/05 10:14:44;;;;;;;7.63;6.93;;;;;;;6.90;93.73;99014.00;5013927;28;20264;-78
2024/01/05 10:17:11;;;;;;;7.27;6.40;;;;;;;6.94;93.69;99013.03;5012364;28;20630;-77
2024/01/05 10:19:39;;;;;;;7.83;7.13;;;;;;;6.96;93.51;99010.41;5013817;28;20240;-80
2024/01/05 10:22:10;;;;;;;7.10;6.40;;;;;;;6.99;93.74;99001.69;5023735;28;20240;-80
2024/01/05 10:24:39;;;;;;;6.80;6.20;;;;;;;7.04;93.44;99000.66;5014663;28;20213;-78
2024/01/05 10:27:06;;;;;;;7.23;6.20;;;;;;;7.06;93.25;99003.22;5013967;28;20235;-78
2024/01/05 10:29:34;;;;;;;7.80;6.97;;;;;;;7.07;93.39;98997.13;5010317;28;20228;-79
2024/01/05 10:32:11;;;;;;;7.23;6.43;;;;;;;7.12;92.82;98983.13;5001059;28;20226;-78
2024/01/05 10:34:38;;;;;;;8.47;6.77;;;;;;;7.19;93.54;98972.56;5015175;28;20203;-79
2024/01/05 10:37:05;;;;;;;7.93;7.13;;;;;;;7.22;93.54;98970.75;5013410;28;20217;-79
2024/01/05 10:39:31;;;;;;;7.30;6.60;;;;;;;7.26;93.21;98968.91;5014003;28;20209;-79
2024/01/05 10:42:15;;;;;;;7.40;6.67;;;;;;;7.30;92.54;98965.34;5013006;28;20226;-79
2024/01/05 10:44:45;;;;;;;7.83;7.03;;;;;;;7.30;93.25;98965.34;5014788;28;20206;-80
2024/01/05 10:47:15;;;;;;;7.67;6.67;;;;;;;7.35;93.69;98951.34;5013668;28;20292;-80
2024/01/05 10:49:46;;;;;;;8.03;7.23;;;;;;;7.34;94.03;98941.81;5014211;28;20230;-78
2024/01/05 10:52:13;;;;;;;7.07;6.37;;;;;;;7.40;94.21;98940.81;5014517;28;20228;-79
2024/01/05 10:54:40;;;;;;;8.10;7.30;;;;;;;7.45;94.21;98932.88;5015174;28;20291;-79
2024/01/05 10:57:09;;;;;;;7.17;6.50;;;;;;;7.47;94.44;98929.34;5014176;28;20210;-78
2024/01/05 10:59:35;;;;;;;7.33;6.63;;;;;;;7.55;95.28;98918.69;5002525;28;20208;-78
2024/01/05 11:02:10;;;;;;;7.70;6.90;;;;;;;7.61;94.55;98912.47;4999620;28;20240;-78
2024/01/05 11:04:40;;;;;;;6.53;5.93;;;;;;;7.68;93.89;98922.63;5013753;28;20227;-79
2024/01/05 11:07:09;;;;;;;7.80;6.90;;;;;;;7.74;93.34;98932.81;5014471;28;20335;-77
2024/01/05 11:09:48;;;;;;;6.83;6.23;;;;;;;7.83;93.81;98934.28;5012433;28;20234;-79
2024/01/05 11:12:29;;;;;;;6.90;6.30;;;;;;;7.89;93.03;98939.28;5013618;28;20237;-79
2024/01/05 11:15:17;;;;;;;6.50;5.90;;;;;;;7.91;92.91;98949.63;5014293;28;20207;-79
2024/01/05 11:18:05;;;;;;;7.50;6.30;;;;;;;7.88;92.56;98954.91;5013603;28;20241;-79
2024/01/05 11:20:49;;;;;;;6.73;6.13;;;;;;;7.87;93.78;98938.47;5011612;28;20228;-78
2024/01/05 11:23:17;;;;;;;7.27;6.00;;;;;;;7.90;94.28;98904.59;5012291;28;20267;-77
2024/01/05 11:25:44;;;;;;;6.83;6.20;;;;;;;7.94;94.62;98906.19;5015424;28;20213;-78
2024/01/05 11:28:32;;;;;;;7.87;7.13;;;;;;;7.99;94.06;98905.19;5015848;28;20569;-77
2024/01/05 11:30:58;;;;;;;7.67;6.97;;;;;;;8.03;95.04;98893.81;4996453;28;20232;-77
2024/01/05 11:33:47;;;;;;;6.97;6.37;;;;;;;8.08;94.77;98892.72;5013301;28;20264;-77
2024/01/05 11:36:34;;;;;;;7.83;7.13;;;;;;;8.22;94.36;98891.41;5016388;28;20255;-77
2024/01/05 11:39:02;;;;;;;8.87;7.07;;;;;;;8.30;93.12;98913.63;5017893;28;20201;-78
2024/01/05 11:41:33;;;;;;;8.47;7.67;;;;;;;8.40;93.93;98919.38;5015739;28;20233;-78